sa Pobla, Spain
Current Conditions -  °F | °C
As of 12:30 AM on Sunday 23 Nov 2014 (Local Time) from LEPA Reporting Station
Clear Clear  
Wind Chill: 55°   Ceiling: Unl
Heat Index: 55°   Visibility: 6mi
Dew Point: 52°   Wind: 5mph
Humidity: 88%   Direction: 70°ENE
Pressure: 30.06"   Gusts: NA
Location:  39.77°N, 3.02°E
Report Text: LEPA 222330Z 07004KT 050V140 CAVOK 13/11 Q1018 NOSIG
Loading
Personal Weather Stations






























Interactive Weather Map New forecast layout! Learn more

10-Day Weather Forecast

Advertisements
Track Severe Weather on mobile